Darstellungsparameter: Aktuell verwendete Einstellungen:
Skalierung der Graphiken ... ?
xyx+y,   Skalierungsfaktor:      Skalierung: Modus: x, Faktor: 1
Darstellungszeitraum ... ?
Vom - - bis: - -   Zeitraum: 14.02.2021 - 14.02.2021
Min/Max/Avg-Anzeige ... ?
Zeige MMA aktuell
Zeige MMA Monat
Zeige MMA alles
Zeige --A aktuell
Zeige --A Monat
Zeige --A alles
Keine MMA-Anzeige
MMA:
Keine MMA-Graphiken
MMA-Basis: 14.02.2021 - 14.02.2021
Quicknavigation für Darstellung... ?
Tage:      1T, 2T, 3T, 5T -1T -2T -3T -5T +1T +2T +3T +5T
Wochen: 1W, 2W, 3W -1W -2W -3W +1W +2W +3W
Monate: 1M, 3M, 6M -1M -3M -6M +1M +3M +6M
Jahre:    1J, 3J, 5J, 10J -1J -3J -5J -10J +1J +3J +5J +10J
Nutze für die Darstellung ... ?
Originaldaten oder Mittelwerte auf ...
Stundenbasis Tagesbasis Wochenbasis
Monatsbasis Jahresbasis      Datenbasis: Original-Daten
Darstellen als:
Statistik (Auto) Statistik J:M      Darstellung:
Zur Graphik,    zurück zur Übersicht aller Sensoren.
 
Tabellarische Datenbersicht: ?
 
Sensor: Nr:Datum:Temp:Feuchte:Taupunkt:
Aussen-T/F 1 14-02-2021 00:00:00 -7.1 C 87 % -8.89 C
2 14-02-2021 00:05:00 -7.2 C 87 % -8.99 C
3 14-02-2021 00:10:00 -7.3 C 88 % -8.94 C
4 14-02-2021 00:15:00 -7.3 C 88 % -8.94 C
5 14-02-2021 00:20:00 -7.3 C 88 % -8.94 C
6 14-02-2021 00:25:00 -7.3 C 88 % -8.94 C
7 14-02-2021 00:30:00 -7.4 C 88 % -9.04 C
8 14-02-2021 00:35:00 -7.4 C 88 % -9.04 C
9 14-02-2021 00:40:00 -7.5 C 88 % -9.14 C
10 14-02-2021 00:45:00 -7.6 C 89 % -9.09 C
11 14-02-2021 00:50:00 -7.6 C 88 % -9.24 C
12 14-02-2021 00:55:00 -7.7 C 89 % -9.19 C
13 14-02-2021 01:00:00 -7.8 C 89 % -9.29 C
14 14-02-2021 01:05:00 -7.9 C 89 % -9.39 C
15 14-02-2021 01:10:00 -7.9 C 89 % -9.39 C
16 14-02-2021 01:15:00 -8 C 89 % -9.49 C
17 14-02-2021 01:20:00 -8.1 C 89 % -9.59 C
18 14-02-2021 01:25:00 -8.1 C 89 % -9.59 C
19 14-02-2021 01:30:00 -8.2 C 90 % -9.54 C
20 14-02-2021 01:35:00 -8.2 C 90 % -9.54 C
21 14-02-2021 01:40:00 -8.2 C 90 % -9.54 C
22 14-02-2021 01:45:00 -8.3 C 90 % -9.64 C
23 14-02-2021 01:50:00 -8.3 C 90 % -9.64 C
24 14-02-2021 01:55:00 -8.3 C 90 % -9.64 C
25 14-02-2021 02:00:00 -8.3 C 90 % -9.64 C
Sensor: Nr:Datum:Temp:Feuchte:Taupunkt:
Aussen-T/F 26 14-02-2021 02:05:00 -8.3 C 90 % -9.64 C
27 14-02-2021 02:10:00 -8.3 C 91 % -9.5 C
28 14-02-2021 02:15:00 -8.3 C 90 % -9.64 C
29 14-02-2021 02:20:00 -8.3 C 91 % -9.5 C
30 14-02-2021 02:25:00 -8.3 C 91 % -9.5 C
31 14-02-2021 02:30:00 -8.3 C 91 % -9.5 C
32 14-02-2021 02:35:00 -8.2 C 91 % -9.4 C
33 14-02-2021 02:40:00 -8.2 C 91 % -9.4 C
34 14-02-2021 02:45:00 -8.1 C 91 % -9.31 C
35 14-02-2021 02:50:00 -8.1 C 91 % -9.31 C
36 14-02-2021 02:55:00 -7.9 C 91 % -9.11 C
37 14-02-2021 03:00:00 -7.9 C 91 % -9.11 C
38 14-02-2021 03:05:00 -7.9 C 91 % -9.11 C
39 14-02-2021 03:10:00 -7.9 C 91 % -9.11 C
40 14-02-2021 03:15:00 -7.9 C 91 % -9.11 C
41 14-02-2021 03:20:00 -7.9 C 91 % -9.11 C
42 14-02-2021 03:25:00 -7.9 C 91 % -9.11 C
43 14-02-2021 03:30:00 -7.9 C 91 % -9.11 C
44 14-02-2021 03:35:00 -7.9 C 91 % -9.11 C
45 14-02-2021 03:40:00 -7.9 C 91 % -9.11 C
46 14-02-2021 03:45:00 -8 C 91 % -9.21 C
47 14-02-2021 03:50:00 -8.2 C 90 % -9.54 C
48 14-02-2021 03:55:00 -8.3 C 90 % -9.64 C
49 14-02-2021 04:00:00 -8.3 C 90 % -9.64 C
50 14-02-2021 04:05:00 -8.4 C 90 % -9.74 C
Sensor: Nr:Datum:Temp:Feuchte:Taupunkt:
Aussen-T/F 51 14-02-2021 04:10:00 -8.4 C 91 % -9.6 C
52 14-02-2021 04:15:00 -8.4 C 91 % -9.6 C
53 14-02-2021 04:20:00 -8.5 C 91 % -9.7 C
54 14-02-2021 04:25:00 -8.6 C 91 % -9.8 C
55 14-02-2021 04:30:00 -8.6 C 91 % -9.8 C
56 14-02-2021 04:35:00 -8.7 C 91 % -9.9 C
57 14-02-2021 04:40:00 -8.7 C 91 % -9.9 C
58 14-02-2021 04:45:00 -8.7 C 91 % -9.9 C
59 14-02-2021 04:50:00 -8.7 C 91 % -9.9 C
60 14-02-2021 04:55:00 -8.6 C 91 % -9.8 C
61 14-02-2021 05:00:00 -8.6 C 92 % -9.66 C
62 14-02-2021 05:05:00 -8.6 C 92 % -9.66 C
63 14-02-2021 05:10:00 -8.6 C 92 % -9.66 C
64 14-02-2021 05:15:00 -8.6 C 92 % -9.66 C
65 14-02-2021 05:20:00 -8.6 C 92 % -9.66 C
66 14-02-2021 05:25:00 -8.6 C 91 % -9.8 C
67 14-02-2021 05:30:00 -8.7 C 91 % -9.9 C
68 14-02-2021 05:35:00 -8.7 C 91 % -9.9 C
69 14-02-2021 05:40:00 -8.7 C 91 % -9.9 C
70 14-02-2021 05:45:00 -8.7 C 91 % -9.9 C
71 14-02-2021 05:50:00 -8.8 C 91 % -10 C
72 14-02-2021 05:55:00 -8.8 C 91 % -10 C
73 14-02-2021 06:00:00 -8.8 C 92 % -9.86 C
74 14-02-2021 06:05:00 -8.8 C 91 % -10 C
75 14-02-2021 06:10:00 -8.9 C 91 % -10.1 C
Sensor: Nr:Datum:Temp:Feuchte:Taupunkt:
Aussen-T/F 76 14-02-2021 06:15:00 -8.9 C 91 % -10.1 C
77 14-02-2021 06:20:00 -8.9 C 91 % -10.1 C
78 14-02-2021 06:25:00 -8.9 C 92 % -9.96 C
79 14-02-2021 06:30:00 -9 C 92 % -10.06 C
80 14-02-2021 06:35:00 -9 C 92 % -10.06 C
81 14-02-2021 06:40:00 -9 C 92 % -10.06 C
82 14-02-2021 06:45:00 -9 C 92 % -10.06 C
83 14-02-2021 06:50:00 -9.1 C 92 % -10.16 C
84 14-02-2021 06:55:00 -9.1 C 92 % -10.16 C
85 14-02-2021 07:00:00 -9.2 C 91 % -10.39 C
86 14-02-2021 07:05:00 -9.3 C 91 % -10.49 C
87 14-02-2021 07:10:00 -9.4 C 91 % -10.59 C
88 14-02-2021 07:15:00 -9.4 C 91 % -10.59 C
89 14-02-2021 07:20:00 -9.6 C 91 % -10.79 C
90 14-02-2021 07:25:00 -9.6 C 91 % -10.79 C
91 14-02-2021 07:30:00 -9.6 C 92 % -10.65 C
92 14-02-2021 07:35:00 -9.5 C 92 % -10.55 C
93 14-02-2021 07:40:00 -9.5 C 92 % -10.55 C
94 14-02-2021 07:45:00 -9.6 C 92 % -10.65 C
95 14-02-2021 07:50:00 -9.6 C 92 % -10.65 C
96 14-02-2021 07:55:00 -9.6 C 92 % -10.65 C
97 14-02-2021 08:00:00 -9.6 C 92 % -10.65 C
98 14-02-2021 08:05:00 -9.6 C 92 % -10.65 C
99 14-02-2021 08:10:00 -9.5 C 92 % -10.55 C
100 14-02-2021 08:15:00 -9.4 C 92 % -10.45 C
Sensor: Nr:Datum:Temp:Feuchte:Taupunkt:
Aussen-T/F 101 14-02-2021 08:20:00 -9.4 C 92 % -10.45 C
102 14-02-2021 08:25:00 -9.3 C 92 % -10.36 C
103 14-02-2021 08:30:00 -9.3 C 92 % -10.36 C
104 14-02-2021 08:35:00 -9.2 C 92 % -10.26 C
105 14-02-2021 08:40:00 -9.2 C 92 % -10.26 C
106 14-02-2021 08:45:00 -9.2 C 92 % -10.26 C
107 14-02-2021 08:50:00 -9.1 C 92 % -10.16 C
108 14-02-2021 08:55:00 -9 C 93 % -9.92 C
109 14-02-2021 09:00:00 -8.8 C 93 % -9.72 C
110 14-02-2021 09:05:00 -8.7 C 93 % -9.62 C
111 14-02-2021 09:10:00 -8.6 C 93 % -9.52 C
112 14-02-2021 09:15:00 -8.5 C 93 % -9.43 C
113 14-02-2021 09:20:00 -8.4 C 93 % -9.33 C
114 14-02-2021 09:25:00 -8.3 C 93 % -9.23 C
115 14-02-2021 09:30:00 -8.1 C 93 % -9.03 C
116 14-02-2021 09:35:00 -8 C 93 % -8.93 C
117 14-02-2021 09:40:00 -7.8 C 93 % -8.73 C
118 14-02-2021 09:45:00 -7.7 C 93 % -8.63 C
119 14-02-2021 09:50:00 -7.6 C 93 % -8.53 C
120 14-02-2021 09:55:00 -7.5 C 93 % -8.43 C
121 14-02-2021 10:00:00 -7.3 C 93 % -8.23 C
122 14-02-2021 10:05:00 -7.2 C 93 % -8.14 C
123 14-02-2021 10:10:00 -7.1 C 93 % -8.04 C
124 14-02-2021 10:15:00 -6.9 C 93 % -7.84 C
125 14-02-2021 10:20:00 -6.8 C 93 % -7.74 C
Sensor: Nr:Datum:Temp:Feuchte:Taupunkt:
Aussen-T/F 126 14-02-2021 10:25:00 -6.7 C 93 % -7.64 C
127 14-02-2021 10:30:00 -6.6 C 93 % -7.54 C
128 14-02-2021 10:35:00 -6.4 C 93 % -7.34 C
129 14-02-2021 10:40:00 -6.3 C 93 % -7.24 C
130 14-02-2021 10:45:00 -6.2 C 93 % -7.14 C
131 14-02-2021 10:50:00 -6.1 C 93 % -7.04 C
132 14-02-2021 10:55:00 -5.9 C 93 % -6.85 C
133 14-02-2021 11:00:00 -5.7 C 93 % -6.65 C
134 14-02-2021 11:05:00 -5.4 C 93 % -6.35 C
135 14-02-2021 11:10:00 -5.1 C 93 % -6.05 C
136 14-02-2021 11:15:00 -4.9 C 93 % -5.85 C
137 14-02-2021 11:20:00 -4.6 C 93 % -5.56 C
138 14-02-2021 11:25:00 -4.3 C 93 % -5.26 C
139 14-02-2021 11:30:00 -4.1 C 93 % -5.06 C
140 14-02-2021 11:35:00 -3.9 C 92 % -5 C
141 14-02-2021 11:40:00 -3.7 C 92 % -4.81 C
142 14-02-2021 11:45:00 -3.4 C 92 % -4.51 C
143 14-02-2021 11:50:00 -3.2 C 91 % -4.46 C
144 14-02-2021 11:55:00 -3 C 90 % -4.4 C
145 14-02-2021 12:00:00 -2.8 C 90 % -4.21 C
146 14-02-2021 12:05:00 -2.6 C 89 % -4.16 C
147 14-02-2021 12:10:00 -2.4 C 89 % -3.96 C
148 14-02-2021 12:15:00 -2.2 C 87 % -4.07 C
149 14-02-2021 12:20:00 -1.9 C 87 % -3.77 C
150 14-02-2021 12:25:00 -1.7 C 85 % -3.88 C
Sensor: Nr:Datum:Temp:Feuchte:Taupunkt:
Aussen-T/F 151 14-02-2021 12:30:00 -1.4 C 85 % -3.59 C
152 14-02-2021 12:35:00 -1.2 C 85 % -3.39 C
153 14-02-2021 12:40:00 -0.9 C 83 % -3.42 C
154 14-02-2021 12:45:00 -0.7 C 83 % -3.22 C
155 14-02-2021 12:50:00 -0.5 C 82 % -3.19 C
156 14-02-2021 12:55:00 -0.3 C 80 % -3.32 C
157 14-02-2021 13:00:00 -0.1 C 76 % -3.81 C
158 14-02-2021 13:05:00 0.2 C 77 % -3.34 C
159 14-02-2021 13:10:00 0.4 C 73 % -3.86 C
160 14-02-2021 13:15:00 0.7 C 69 % -4.32 C
161 14-02-2021 13:20:00 1 C 65 % -4.82 C
162 14-02-2021 13:25:00 1.3 C 62 % -5.16 C
163 14-02-2021 13:30:00 1.6 C 64 % -4.46 C
164 14-02-2021 13:35:00 1.9 C 61 % -4.81 C
165 14-02-2021 13:40:00 2.2 C 54 % -6.12 C
166 14-02-2021 13:45:00 2.5 C 53 % -6.09 C
167 14-02-2021 13:50:00 2.7 C 54 % -5.66 C
168 14-02-2021 13:55:00 2.9 C 54 % -5.47 C
169 14-02-2021 14:00:00 3.2 C 47 % -7 C
170 14-02-2021 14:05:00 3.4 C 49 % -6.28 C
171 14-02-2021 14:10:00 3.6 C 45 % -7.2 C
172 14-02-2021 14:15:00 3.7 C 47 % -6.55 C
173 14-02-2021 14:20:00 3.7 C 44 % -7.4 C
174 14-02-2021 14:25:00 3.8 C 46 % -6.73 C
175 14-02-2021 14:30:00 3.8 C 46 % -6.73 C
Sensor: Nr:Datum:Temp:Feuchte:Taupunkt:
Aussen-T/F 176 14-02-2021 14:35:00 3.8 C 42 % -7.91 C
177 14-02-2021 14:40:00 3.8 C 45 % -7.02 C
178 14-02-2021 14:45:00 3.8 C 45 % -7.02 C
179 14-02-2021 14:50:00 3.9 C 43 % -7.51 C
180 14-02-2021 14:55:00 3.9 C 46 % -6.64 C
181 14-02-2021 15:00:00 3.9 C 45 % -6.93 C
182 14-02-2021 15:05:00 3.8 C 45 % -7.02 C
183 14-02-2021 15:10:00 3.7 C 43 % -7.7 C
184 14-02-2021 15:15:00 3.6 C 46 % -6.92 C
185 14-02-2021 15:20:00 3.6 C 45 % -7.2 C
186 14-02-2021 15:25:00 3.6 C 47 % -6.64 C
187 14-02-2021 15:30:00 3.6 C 46 % -6.92 C
188 14-02-2021 15:35:00 3.7 C 47 % -6.55 C
189 14-02-2021 15:40:00 3.7 C 45 % -7.11 C
190 14-02-2021 15:45:00 3.7 C 48 % -6.27 C
191 14-02-2021 15:50:00 3.8 C 45 % -7.02 C
192 14-02-2021 15:55:00 4 C 46 % -6.55 C
193 14-02-2021 16:00:00 4.1 C 49 % -5.63 C
194 14-02-2021 16:05:00 4 C 52 % -4.95 C
195 14-02-2021 16:10:00 3.8 C 48 % -6.18 C
196 14-02-2021 16:15:00 3.7 C 49 % -6 C
197 14-02-2021 16:20:00 3.5 C 46 % -7.01 C
198 14-02-2021 16:25:00 3.3 C 56 % -4.62 C
199 14-02-2021 16:30:00 3.2 C 54 % -5.19 C
200 14-02-2021 16:35:00 2.9 C 57 % -4.76 C
Sensor: Nr:Datum:Temp:Feuchte:Taupunkt:
Aussen-T/F 201 14-02-2021 16:40:00 2.7 C 59 % -4.49 C
202 14-02-2021 16:45:00 2.4 C 61 % -4.34 C
203 14-02-2021 16:50:00 2.3 C 63 % -4 C
204 14-02-2021 16:55:00 2.2 C 64 % -3.89 C
205 14-02-2021 17:00:00 2.1 C 65 % -3.78 C
206 14-02-2021 17:05:00 1.9 C 67 % -3.56 C
207 14-02-2021 17:10:00 1.8 C 67 % -3.66 C
208 14-02-2021 17:15:00 1.6 C 68 % -3.65 C
209 14-02-2021 17:20:00 1.4 C 68 % -3.84 C
210 14-02-2021 17:25:00 1.2 C 70 % -3.65 C
211 14-02-2021 17:30:00 1.1 C 69 % -3.94 C
212 14-02-2021 17:35:00 0.9 C 70 % -3.94 C
213 14-02-2021 17:40:00 0.8 C 71 % -3.85 C
214 14-02-2021 17:45:00 0.6 C 72 % -3.85 C
215 14-02-2021 17:50:00 0.4 C 72 % -4.04 C
216 14-02-2021 17:55:00 0.3 C 73 % -3.96 C
217 14-02-2021 18:00:00 0.2 C 72 % -4.24 C
218 14-02-2021 18:05:00 0.1 C 73 % -4.15 C
219 14-02-2021 18:10:00 0.1 C 74 % -3.97 C
220 14-02-2021 18:15:00 -0.1 C 74 % -4.17 C
221 14-02-2021 18:20:00 -0.1 C 74 % -4.17 C
222 14-02-2021 18:25:00 -0.2 C 75 % -4.09 C
223 14-02-2021 18:30:00 -0.2 C 75 % -4.09 C
224 14-02-2021 18:35:00 -0.2 C 76 % -3.91 C
225 14-02-2021 18:40:00 -0.3 C 75 % -4.18 C
Sensor: Nr:Datum:Temp:Feuchte:Taupunkt:
Aussen-T/F 226 14-02-2021 18:45:00 -0.3 C 75 % -4.18 C
227 14-02-2021 18:50:00 -0.3 C 74 % -4.36 C
228 14-02-2021 18:55:00 -0.3 C 75 % -4.18 C
229 14-02-2021 19:00:00 -0.3 C 75 % -4.18 C
230 14-02-2021 19:05:00 -0.3 C 75 % -4.18 C
231 14-02-2021 19:10:00 -0.4 C 75 % -4.28 C
232 14-02-2021 19:15:00 -0.4 C 75 % -4.28 C
233 14-02-2021 19:20:00 -0.4 C 76 % -4.1 C
234 14-02-2021 19:25:00 -0.4 C 76 % -4.1 C
235 14-02-2021 19:30:00 -0.4 C 76 % -4.1 C
236 14-02-2021 19:35:00 -0.4 C 76 % -4.1 C
237 14-02-2021 19:40:00 -0.4 C 76 % -4.1 C
238 14-02-2021 19:45:00 -0.4 C 76 % -4.1 C
239 14-02-2021 19:50:00 -0.4 C 76 % -4.1 C
240 14-02-2021 19:55:00 -0.4 C 76 % -4.1 C
241 14-02-2021 20:00:00 -0.4 C 76 % -4.1 C
242 14-02-2021 20:05:00 -0.5 C 75 % -4.38 C
243 14-02-2021 20:10:00 -0.5 C 75 % -4.38 C
244 14-02-2021 20:15:00 -0.6 C 75 % -4.47 C
245 14-02-2021 20:20:00 -0.7 C 75 % -4.57 C
246 14-02-2021 20:25:00 -0.7 C 74 % -4.75 C
247 14-02-2021 20:30:00 -0.8 C 74 % -4.84 C
248 14-02-2021 20:35:00 -0.9 C 74 % -4.94 C
249 14-02-2021 20:40:00 -1.1 C 75 % -4.96 C
250 14-02-2021 20:45:00 -1.2 C 75 % -5.05 C
Sensor: Nr:Datum:Temp:Feuchte:Taupunkt:
Aussen-T/F 251 14-02-2021 20:50:00 -1.2 C 76 % -4.88 C
252 14-02-2021 20:55:00 -1.3 C 76 % -4.98 C
253 14-02-2021 21:00:00 -1.4 C 77 % -4.9 C
254 14-02-2021 21:05:00 -1.4 C 78 % -4.73 C
255 14-02-2021 21:10:00 -1.5 C 77 % -5 C
256 14-02-2021 21:15:00 -1.6 C 78 % -4.93 C
257 14-02-2021 21:20:00 -1.6 C 79 % -4.76 C
258 14-02-2021 21:25:00 -1.6 C 78 % -4.93 C
259 14-02-2021 21:30:00 -1.6 C 78 % -4.93 C
260 14-02-2021 21:35:00 -1.6 C 78 % -4.93 C
261 14-02-2021 21:40:00 -1.6 C 79 % -4.76 C
262 14-02-2021 21:45:00 -1.6 C 79 % -4.76 C
263 14-02-2021 21:50:00 -1.6 C 79 % -4.76 C
264 14-02-2021 21:55:00 -1.7 C 79 % -4.85 C
265 14-02-2021 22:00:00 -1.7 C 79 % -4.85 C
266 14-02-2021 22:05:00 -1.8 C 79 % -4.95 C
267 14-02-2021 22:10:00 -1.8 C 79 % -4.95 C
268 14-02-2021 22:15:00 -1.9 C 79 % -5.05 C
269 14-02-2021 22:20:00 -1.9 C 79 % -5.05 C
270 14-02-2021 22:25:00 -1.9 C 80 % -4.88 C
271 14-02-2021 22:30:00 -1.9 C 80 % -4.88 C
272 14-02-2021 22:35:00 -1.9 C 80 % -4.88 C
273 14-02-2021 22:40:00 -1.9 C 79 % -5.05 C
274 14-02-2021 22:45:00 -1.9 C 79 % -5.05 C
275 14-02-2021 22:50:00 -1.9 C 79 % -5.05 C
Sensor: Nr:Datum:Temp:Feuchte:Taupunkt:
Aussen-T/F 276 14-02-2021 22:55:00 -1.9 C 79 % -5.05 C
277 14-02-2021 23:00:00 -1.9 C 79 % -5.05 C
278 14-02-2021 23:05:00 -2 C 78 % -5.31 C
279 14-02-2021 23:10:00 -2 C 78 % -5.31 C
280 14-02-2021 23:15:00 -2 C 76 % -5.66 C
281 14-02-2021 23:20:00 -2 C 75 % -5.83 C
282 14-02-2021 23:25:00 -2 C 74 % -6 C
283 14-02-2021 23:30:00 -2.1 C 75 % -5.93 C
284 14-02-2021 23:35:00 -2.1 C 73 % -6.28 C
285 14-02-2021 23:40:00 -2 C 72 % -6.36 C
286 14-02-2021 23:45:00 -1.9 C 72 % -6.27 C
287 14-02-2021 23:50:00 -1.8 C 71 % -6.35 C
288 14-02-2021 23:55:00 -1.7 C 72 % -6.07 C

Legende:
   Min
   Max


Maximal/Minimal-Werte vom 14.02.2021 - 14.02.2021

Sensor Min Max Avg
Temp
(Aussen-T/F)
-9.6 °C
14-02-2021  07:20:00
4.1 °C
14-02-2021  16:00:00
-3.78 °C
Feuchte
(Aussen-T/F)
42 %
14-02-2021  14:35:00
93 %
14-02-2021  08:55:00
79.84 %
Taupunkt
(Aussen-T/F)
-10.79 C
14-02-2021  07:20:00
-3.19 C
14-02-2021  12:50:00
-7.05 C

Die Daten stammen von einer Davis Vantage Pro 2 Wetter-Station und werden unter Linux mit der Software wview2wettercgi und aufbereitet. Alle Angaben erfolgen ohne Gewähr für ihre Vollständigkeit oder Richtigkeit.
Kontakt: Rainer Krienke krienke@uni-koblenz.de . Meine Webseiten an der Uni Koblenz oder privat.
Version: $Revision: 0.78 $